Time;durP1;ratioP1;P1;durP2;ratioP2;P2;SDS_P1;SDS_P2;PMS_P1;PMS_P2;Temp;Humidity;BMP_temperature;BMP_pressure;BME280_temperature;BME280_humidity;BME280_pressure;Samples;Min_cycle;Max_cycle;Signal;HPM_P1;HPM_P2
2024/03/30 00:00:23;;;;;;;2.35;0.90;;;12.10;1.00;;;;;;20206907;29;20053;-44
2024/03/30 00:10:24;;;;;;;2.35;1.00;;;12.00;1.00;;;;;;20206285;29;20425;-44
2024/03/30 00:20:26;;;;;;;2.47;0.80;;;11.80;1.00;;;;;;20206670;29;20044;-44
2024/03/30 00:30:30;;;;;;;1.70;0.80;;;11.80;1.00;;;;;;20207079;29;20501;-45
2024/03/30 00:40:31;;;;;;;3.67;1.00;;;11.70;1.00;;;;;;20203441;29;20144;-44
2024/03/30 00:50:31;;;;;;;1.80;1.00;;;11.70;1.00;;;;;;20203213;29;20048;-44
2024/03/30 01:00:32;;;;;;;2.60;1.15;;;11.60;1.00;;;;;;20201834;29;20516;-44
2024/03/30 01:10:33;;;;;;;2.03;1.02;;;11.50;1.00;;;;;;20201564;29;20044;-44
2024/03/30 01:20:33;;;;;;;2.80;1.20;;;11.40;1.00;;;;;;20201495;29;20397;-44
2024/03/30 01:30:34;;;;;;;3.03;1.08;;;11.30;1.00;;;;;;20201344;29;20052;-44
2024/03/30 01:40:36;;;;;;;1.95;0.80;;;11.10;1.00;;;;;;20200429;29;20060;-44
2024/03/30 01:50:40;;;;;;;4.03;1.17;;;11.00;1.00;;;;;;20201410;29;20048;-44
2024/03/30 02:00:40;;;;;;;1.48;0.88;;;11.00;1.00;;;;;;20198860;29;20136;-44
2024/03/30 02:10:42;;;;;;;2.10;1.07;;;10.90;1.00;;;;;;20199138;29;20053;-45
2024/03/30 02:20:42;;;;;;;1.95;1.05;;;10.90;1.00;;;;;;20201443;29;20547;-45
2024/03/30 02:30:44;;;;;;;2.45;0.88;;;10.90;1.00;;;;;;20199511;29;20119;-44
2024/03/30 02:40:56;;;;;;;3.72;1.35;;;10.80;1.00;;;;;;20345499;29;20139;-45
2024/03/30 02:50:56;;;;;;;2.72;1.00;;;10.80;1.00;;;;;;20369072;29;20055;-45
2024/03/30 03:00:57;;;;;;;2.58;1.20;;;10.70;1.00;;;;;;20367875;29;20574;-45
2024/03/30 03:10:57;;;;;;;2.55;1.20;;;10.70;1.00;;;;;;20364704;29;20138;-45
2024/03/30 03:20:58;;;;;;;2.03;1.00;;;10.60;1.00;;;;;;20361860;29;20090;-45
2024/03/30 03:30:59;;;;;;;2.45;1.20;;;10.70;1.00;;;;;;20363774;29;20586;-45
2024/03/30 03:40:59;;;;;;;3.40;1.40;;;10.60;2.60;;;;;;20363949;29;20106;-45
2024/03/30 03:51:01;;;;;;;3.28;1.20;;;10.60;3.20;;;;;;20363222;29;20464;-44
2024/03/30 04:01:05;;;;;;;3.58;0.95;;;10.60;6.00;;;;;;20364278;29;20070;-45
2024/03/30 04:11:06;;;;;;;2.13;1.08;;;10.50;6.30;;;;;;20362439;29;20051;-45
2024/03/30 04:21:06;;;;;;;2.47;1.20;;;10.50;7.90;;;;;;20363025;29;20449;-46
2024/03/30 04:31:07;;;;;;;2.43;1.20;;;10.30;13.10;;;;;;20360380;29;20499;-45
2024/03/30 04:41:08;;;;;;;2.75;1.20;;;10.30;15.30;;;;;;20358494;29;20487;-45
2024/03/30 04:51:09;;;;;;;2.63;1.27;;;10.30;19.40;;;;;;20359524;29;20044;-45
2024/03/30 05:01:10;;;;;;;2.22;1.30;;;10.20;21.00;;;;;;20359451;29;20116;-45
2024/03/30 05:11:10;;;;;;;2.67;1.33;;;10.20;23.40;;;;;;20358846;29;20088;-45
2024/03/30 05:21:11;;;;;;;1.73;1.00;;;10.20;28.20;;;;;;20357651;29;20047;-45
2024/03/30 05:31:22;;;;;;;2.35;1.20;;;10.20;35.10;;;;;;20357157;29;20485;-45
2024/03/30 05:41:23;;;;;;;2.10;0.93;;;10.20;37.90;;;;;;20339533;29;20047;-45
2024/03/30 05:51:23;;;;;;;2.47;1.40;;;10.20;42.80;;;;;;20339948;29;20489;-45
2024/03/30 06:01:24;;;;;;;2.05;1.20;;;10.20;46.20;;;;;;20356169;29;20059;-45
2024/03/30 06:11:25;;;;;;;2.30;1.25;;;10.20;46.90;;;;;;20356324;29;20119;-45
2024/03/30 06:21:26;;;;;;;3.78;2.03;;;10.00;52.20;;;;;;20372559;29;20448;-45
2024/03/30 06:31:27;;;;;;;3.53;2.10;;;10.10;63.00;;;;;;20370818;29;20035;-45
2024/03/30 06:51:47;;;;;;;2.97;1.95;;;10.00;90.00;;;;;;20370413;29;20047;-45
2024/03/30 07:01:47;;;;;;;4.25;2.03;;;9.90;95.50;;;;;;20367856;29;20047;-45
2024/03/30 07:11:48;;;;;;;3.60;2.08;;;9.90;99.90;;;;;;20366838;29;20052;-45
2024/03/30 07:21:49;;;;;;;3.53;2.17;;;9.80;99.90;;;;;;20366599;29;20073;-46
2024/03/30 07:31:50;;;;;;;3.40;2.28;;;9.80;99.90;;;;;;20366064;29;20104;-45
2024/03/30 07:41:50;;;;;;;3.10;1.98;;;9.60;99.90;;;;;;20364476;29;20044;-45
2024/03/30 07:51:51;;;;;;;2.53;1.77;;;9.60;99.90;;;;;;20364421;29;20429;-45
2024/03/30 08:01:52;;;;;;;3.17;1.80;;;9.60;99.90;;;;;;20363016;29;20140;-46
2024/03/30 08:11:54;;;;;;;3.78;1.50;;;9.60;99.90;;;;;;20363766;29;20539;-45
2024/03/30 08:21:55;;;;;;;2.97;1.67;;;9.70;99.90;;;;;;20363165;29;20111;-46
2024/03/30 08:31:55;;;;;;;2.85;1.60;;;9.70;99.90;;;;;;20360362;29;20066;-46
2024/03/30 08:41:56;;;;;;;2.47;1.10;;;9.60;99.90;;;;;;20360454;29;20048;-46
2024/03/30 08:51:56;;;;;;;2.92;1.52;;;9.70;99.90;;;;;;20350007;29;20602;-45
2024/03/30 09:01:57;;;;;;;3.20;2.22;;;9.60;99.90;;;;;;20358180;29;20047;-45
2024/03/30 09:11:58;;;;;;;3.63;1.73;;;9.60;99.90;;;;;;20357594;29;20412;-46
2024/03/30 09:21:58;;;;;;;3.33;1.90;;;9.70;99.90;;;;;;20357753;29;20082;-45
2024/03/30 09:31:59;;;;;;;3.08;1.92;;;9.60;99.90;;;;;;20357831;29;20400;-45
2024/03/30 09:42:02;;;;;;;2.40;1.55;;;9.70;99.90;;;;;;20356754;29;20055;-45
2024/03/30 09:52:04;;;;;;;2.28;1.23;;;9.80;99.90;;;;;;20368566;29;20521;-45
2024/03/30 10:02:05;;;;;;;3.75;2.42;;;9.90;99.90;;;;;;20371466;29;20043;-46
2024/03/30 10:12:15;;;;;;;2.05;1.30;;;10.00;99.90;;;;;;20371374;29;20051;-45
2024/03/30 10:22:16;;;;;;;4.00;2.20;;;9.90;99.90;;;;;;20372067;29;20134;-45
2024/03/30 10:32:17;;;;;;;4.97;2.77;;;9.90;99.90;;;;;;20351353;29;20048;-44
2024/03/30 10:42:17;;;;;;;4.32;2.70;;;10.00;99.90;;;;;;20369563;29;20460;-45
2024/03/30 10:52:18;;;;;;;3.50;2.53;;;10.30;99.90;;;;;;20368115;29;20035;-45
2024/03/30 11:02:23;;;;;;;4.00;2.90;;;10.60;99.90;;;;;;20366337;29;20747;-45
2024/03/30 11:12:23;;;;;;;4.38;2.80;;;10.70;99.90;;;;;;20367006;29;20046;-45
2024/03/30 11:22:34;;;;;;;4.65;3.15;;;10.70;99.90;;;;;;20367291;29;20079;-45
2024/03/30 11:32:38;;;;;;;4.78;3.20;;;10.60;99.90;;;;;;20363857;29;20043;-45
2024/03/30 11:42:45;;;;;;;4.90;3.08;;;10.50;99.90;;;;;;20363117;29;20563;-45
2024/03/30 11:52:47;;;;;;;3.80;3.00;;;10.40;99.90;;;;;;20364697;29;20040;-45
2024/03/30 12:02:48;;;;;;;5.28;2.88;;;10.30;99.90;;;;;;20361186;29;20048;-45
2024/03/30 12:12:59;;;;;;;5.90;3.13;;;10.40;99.90;;;;;;20361776;29;20115;-45
2024/03/30 12:23:01;;;;;;;5.13;2.55;;;10.40;99.90;;;;;;20363152;29;20069;-45
2024/03/30 12:33:01;;;;;;;3.10;2.03;;;10.40;99.90;;;;;;20359158;29;20052;-45
2024/03/30 12:43:03;;;;;;;6.50;4.80;;;10.40;99.90;;;;;;20360880;29;20098;-45
2024/03/30 12:53:03;;;;;;;7.15;5.70;;;10.30;99.90;;;;;;20359152;29;20467;-45
2024/03/30 13:03:04;;;;;;;8.27;6.85;;;10.30;99.90;;;;;;20357899;29;20052;-46
2024/03/30 13:13:05;;;;;;;11.68;8.60;;;10.20;99.90;;;;;;20347299;29;20122;-46
2024/03/30 13:23:05;;;;;;;9.27;7.25;;;10.30;99.90;;;;;;20357589;29;20049;-46
2024/03/30 13:33:06;;;;;;;7.07;5.05;;;10.20;99.90;;;;;;20355693;29;20629;-47
2024/03/30 13:43:08;;;;;;;5.15;4.22;;;10.20;99.90;;;;;;20357493;29;20099;-47
2024/03/30 13:53:08;;;;;;;6.35;4.45;;;10.30;99.90;;;;;;20357859;29;20056;-46
2024/03/30 14:03:09;;;;;;;5.07;3.90;;;10.30;99.90;;;;;;20356466;29;20156;-47
2024/03/30 14:13:09;;;;;;;3.22;2.17;;;10.20;99.90;;;;;;20355204;29;20090;-46
2024/03/30 14:23:10;;;;;;;2.28;1.33;;;10.30;99.90;;;;;;20356257;29;20131;-46
2024/03/30 14:33:11;;;;;;;2.88;1.73;;;10.20;99.90;;;;;;20357747;29;20535;-46
2024/03/30 14:43:11;;;;;;;3.97;2.20;;;10.10;99.90;;;;;;20369605;29;20043;-46
2024/03/30 14:53:12;;;;;;;2.60;1.73;;;10.20;99.90;;;;;;20369972;29;20040;-46
2024/03/30 15:03:12;;;;;;;3.35;2.15;;;10.30;99.90;;;;;;20366668;29;20047;-46
2024/03/30 15:13:13;;;;;;;4.35;2.00;;;10.40;99.90;;;;;;20367961;29;20147;-45
2024/03/30 15:23:14;;;;;;;2.70;2.00;;;10.30;99.90;;;;;;20367260;29;20048;-46
2024/03/30 15:33:15;;;;;;;3.40;1.40;;;10.20;99.90;;;;;;20364971;29;20063;-46
2024/03/30 15:43:16;;;;;;;4.18;2.58;;;10.10;99.90;;;;;;20362718;29;20059;-46
2024/03/30 15:53:16;;;;;;;4.13;1.88;;;10.20;99.90;;;;;;20365501;29;20032;-46
2024/03/30 16:03:18;;;;;;;2.65;1.63;;;10.20;99.90;;;;;;20365457;29;20051;-46
2024/03/30 16:13:19;;;;;;;2.13;1.27;;;10.20;99.90;;;;;;20360946;29;20666;-45
2024/03/30 16:23:19;;;;;;;2.47;1.50;;;10.20;99.90;;;;;;20363175;29;20381;-46
2024/03/30 16:33:20;;;;;;;1.88;1.20;;;10.30;99.90;;;;;;20361787;29;20616;-45
2024/03/30 16:43:21;;;;;;;2.15;1.27;;;10.30;99.90;;;;;;20359580;29;20045;-46
2024/03/30 16:53:22;;;;;;;2.15;1.02;;;10.30;99.90;;;;;;20359741;29;20055;-46
2024/03/30 17:03:23;;;;;;;1.63;0.97;;;10.20;99.90;;;;;;20359500;29;20043;-46
2024/03/30 17:13:23;;;;;;;1.98;1.15;;;10.20;99.90;;;;;;20357928;29;20547;-46
2024/03/30 17:23:24;;;;;;;2.47;1.58;;;10.00;99.90;;;;;;20358564;29;20858;-46
2024/03/30 17:33:25;;;;;;;2.97;1.98;;;10.00;99.90;;;;;;20356376;29;20051;-45
2024/03/30 17:43:26;;;;;;;3.00;2.10;;;10.00;99.90;;;;;;20357381;29;20139;-46
2024/03/30 17:53:32;;;;;;;2.80;1.85;;;9.90;99.90;;;;;;20357667;29;20036;-46
2024/03/30 18:03:33;;;;;;;3.22;2.05;;;9.80;99.90;;;;;;20356638;29;20428;-46
2024/03/30 18:13:33;;;;;;;3.67;2.15;;;9.80;99.90;;;;;;20367613;29;20598;-46
2024/03/30 18:23:36;;;;;;;3.17;2.03;;;9.70;99.90;;;;;;20372083;29;20047;-46
2024/03/30 18:33:37;;;;;;;3.90;2.45;;;9.70;99.90;;;;;;20369508;29;20075;-46
2024/03/30 18:43:37;;;;;;;4.30;2.90;;;9.60;99.90;;;;;;20369750;29;20108;-46
2024/03/30 18:53:38;;;;;;;5.30;3.20;;;9.50;99.90;;;;;;20371725;29;21023;-46
2024/03/30 19:03:40;;;;;;;5.88;3.13;;;9.30;99.90;;;;;;20351176;29;20490;-46
2024/03/30 19:13:43;;;;;;;5.13;3.80;;;9.10;99.90;;;;;;20368032;29;20036;-46
2024/03/30 19:23:44;;;;;;;5.18;3.58;;;9.00;99.90;;;;;;20369246;29;20520;-46
2024/03/30 19:33:47;;;;;;;5.90;4.40;;;8.80;99.90;;;;;;20335376;29;20064;-46
2024/03/30 19:43:48;;;;;;;5.75;4.60;;;8.70;99.90;;;;;;20211702;29;20041;-45
2024/03/30 19:53:49;;;;;;;6.78;4.70;;;8.50;99.90;;;;;;20208708;29;20598;-46
2024/03/30 20:03:49;;;;;;;7.63;4.93;;;8.30;99.90;;;;;;20209975;29;20048;-46
2024/03/30 20:13:50;;;;;;;7.85;5.00;;;8.10;99.90;;;;;;20208535;29;20123;-45
2024/03/30 20:23:50;;;;;;;9.88;6.68;;;7.90;99.90;;;;;;20207249;29;20287;-45
2024/03/30 20:33:51;;;;;;;11.45;7.82;;;7.70;99.90;;;;;;20206853;29;20060;-45
2024/03/30 20:43:52;;;;;;;27.30;16.77;;;7.60;99.90;;;;;;20208080;29;20441;-46
2024/03/30 20:53:52;;;;;;;33.40;22.15;;;7.50;99.90;;;;;;20207620;29;20052;-63
2024/03/30 21:03:53;;;;;;;23.25;15.65;;;7.40;99.90;;;;;;20203299;29;20040;-45
2024/03/30 21:13:53;;;;;;;15.45;11.38;;;7.20;99.90;;;;;;20206999;29;20045;-45
2024/03/30 21:23:54;;;;;;;14.10;9.68;;;7.10;99.90;;;;;;20203924;29;20530;-47
2024/03/30 21:33:54;;;;;;;12.57;9.20;;;7.00;99.90;;;;;;20203133;29;20056;-46
2024/03/30 21:43:55;;;;;;;14.63;10.35;;;7.00;99.90;;;;;;20202701;29;20059;-45
2024/03/30 21:53:56;;;;;;;14.13;9.85;;;6.90;99.90;;;;;;20202549;29;20395;-45
2024/03/30 22:03:56;;;;;;;14.50;10.67;;;6.80;99.90;;;;;;20200582;29;20176;-45
2024/03/30 22:13:57;;;;;;;14.52;10.40;;;6.70;99.90;;;;;;20201876;29;20469;-45
2024/03/30 22:23:58;;;;;;;15.80;10.60;;;6.70;99.90;;;;;;20202634;29;20073;-45
2024/03/30 22:33:59;;;;;;;18.55;11.68;;;6.50;99.90;;;;;;20200860;29;20476;-45
2024/03/30 22:43:59;;;;;;;18.63;11.02;;;6.50;99.90;;;;;;20198896;29;20056;-45
2024/03/30 22:54:00;;;;;;;21.67;13.43;;;6.50;99.90;;;;;;20204460;29;20528;-45
2024/03/30 23:04:00;;;;;;;22.60;13.10;;;6.50;99.90;;;;;;20214823;29;20096;-45
2024/03/30 23:14:01;;;;;;;20.95;12.77;;;6.50;99.90;;;;;;20211782;29;20037;-45
2024/03/30 23:24:02;;;;;;;15.80;10.90;;;6.50;99.90;;;;;;20215132;29;20071;-46
2024/03/30 23:34:04;;;;;;;14.98;10.05;;;6.50;99.90;;;;;;20247220;29;20095;-45
2024/03/30 23:44:05;;;;;;;15.23;10.57;;;6.40;99.90;;;;;;20366989;29;20559;-45
2024/03/30 23:54:05;;;;;;;15.38;10.90;;;6.40;99.90;;;;;;20350684;29;20047;-45
